createdAt,value
2023-05-19T00:02:21.095Z,10.97
2023-05-19T00:05:23.109Z,11.06
2023-05-19T00:08:31.314Z,11.15
2023-05-19T00:11:36.160Z,11.19
2023-05-19T00:14:37.836Z,11.32
2023-05-19T00:17:42.457Z,11.37
2023-05-19T00:24:07.247Z,11.04
2023-05-19T00:27:09.124Z,10.94
2023-05-19T00:30:11.119Z,10.91
2023-05-19T00:33:12.776Z,10.66
2023-05-19T00:36:14.668Z,10.65
2023-05-19T00:39:16.326Z,10.54
2023-05-19T00:42:17.957Z,10.42
2023-05-19T00:45:19.579Z,10.38
2023-05-19T00:48:25.304Z,10.23
2023-05-19T00:51:33.215Z,10.22
2023-05-19T00:54:38.356Z,10.28
2023-05-19T00:57:50.311Z,10.27
2023-05-19T01:00:52.145Z,10.00
2023-05-19T01:03:59.207Z,9.99
2023-05-19T01:07:08.915Z,10.13
2023-05-19T01:10:10.741Z,10.05
2023-05-19T01:13:13.899Z,10.14
2023-05-19T01:16:18.564Z,10.24
2023-05-19T01:19:52.879Z,10.24
2023-05-19T01:23:10.979Z,10.18
2023-05-19T01:26:50.220Z,10.16
2023-05-19T01:30:29.371Z,10.15
2023-05-19T01:33:43.567Z,10.16
2023-05-19T01:36:48.624Z,10.12
2023-05-19T01:39:50.391Z,9.92
2023-05-19T01:42:58.291Z,10.05
2023-05-19T01:46:04.453Z,9.94
2023-05-19T01:49:06.671Z,9.99
2023-05-19T01:52:11.392Z,10.03
2023-05-19T01:55:13.868Z,10.00
2023-05-19T02:01:59.097Z,9.84
2023-05-19T02:05:21.454Z,9.66
2023-05-19T02:08:31.187Z,9.65
2023-05-19T02:12:08.463Z,9.41
2023-05-19T02:15:15.956Z,9.64
2023-05-19T02:18:20.251Z,9.65
2023-05-19T02:21:28.478Z,9.58
2023-05-19T02:27:45.768Z,9.65
2023-05-19T02:30:47.426Z,9.62
2023-05-19T02:33:54.964Z,9.59
2023-05-19T02:36:56.600Z,9.55
2023-05-19T02:40:10.964Z,9.58
2023-05-19T02:43:20.079Z,9.36
2023-05-19T02:46:21.801Z,9.35
2023-05-19T02:49:23.486Z,9.45
2023-05-19T02:52:28.068Z,9.59
2023-05-19T02:55:37.121Z,9.45
2023-05-19T02:58:55.327Z,9.48
2023-05-19T03:02:02.810Z,9.57
2023-05-19T03:05:07.033Z,9.47
2023-05-19T03:08:09.284Z,9.54
2023-05-19T03:11:13.782Z,9.43
2023-05-19T03:14:15.383Z,9.44
2023-05-19T03:17:19.245Z,9.23
2023-05-19T03:20:20.862Z,9.43
2023-05-19T03:23:26.450Z,9.35
2023-05-19T03:26:29.281Z,9.32
2023-05-19T03:29:37.623Z,9.28
2023-05-19T03:32:42.012Z,9.35
2023-05-19T03:35:44.444Z,9.34
2023-05-19T03:38:53.307Z,9.13
2023-05-19T03:41:57.963Z,9.16
2023-05-19T03:48:27.596Z,9.15
2023-05-19T03:51:50.361Z,9.25
2023-05-19T03:55:09.059Z,9.06
2023-05-19T03:58:12.822Z,9.19
2023-05-19T04:01:14.425Z,9.07
2023-05-19T04:04:27.153Z,9.15
2023-05-19T04:07:28.730Z,9.27
2023-05-19T04:10:32.198Z,9.14
2023-05-19T04:13:34.451Z,9.24
2023-05-19T04:16:37.280Z,9.22
2023-05-19T04:19:38.856Z,9.24
2023-05-19T04:22:40.924Z,9.13
2023-05-19T04:25:42.700Z,9.26
2023-05-19T04:28:47.028Z,9.37
2023-05-19T04:31:52.749Z,9.26
2023-05-19T04:34:56.870Z,9.17
2023-05-19T04:38:07.766Z,9.25
2023-05-19T04:41:13.961Z,9.30
2023-05-19T04:44:18.246Z,9.25
2023-05-19T04:47:22.537Z,9.40
2023-05-19T04:50:24.814Z,9.22
2023-05-19T04:53:29.944Z,9.40
2023-05-19T04:56:51.337Z,9.19
2023-05-19T05:00:01.859Z,9.41
2023-05-19T05:03:18.490Z,9.48
2023-05-19T05:06:28.519Z,9.39
2023-05-19T05:09:31.966Z,9.55
2023-05-19T05:15:54.128Z,9.69
2023-05-19T05:19:05.654Z,9.54
2023-05-19T05:22:08.428Z,9.63
2023-05-19T05:25:19.888Z,9.71
2023-05-19T05:28:21.581Z,9.58
2023-05-19T05:31:48.314Z,9.72
2023-05-19T05:34:50.796Z,9.68
2023-05-19T05:37:58.826Z,9.89
2023-05-19T05:41:03.001Z,9.78
2023-05-19T05:44:13.501Z,9.81
2023-05-19T05:47:18.331Z,9.85
2023-05-19T05:50:24.341Z,9.84
2023-05-19T05:53:32.074Z,9.93
2023-05-19T05:56:41.159Z,9.94
2023-05-19T05:59:45.418Z,9.92
2023-05-19T06:03:04.429Z,9.97
2023-05-19T06:06:13.501Z,10.14
2023-05-19T06:09:18.584Z,10.14
2023-05-19T06:12:20.281Z,10.28
2023-05-19T06:15:24.705Z,10.36
2023-05-19T06:18:46.645Z,10.49
2023-05-19T06:22:14.135Z,10.67
2023-05-19T06:25:19.196Z,10.77
2023-05-19T06:28:20.935Z,10.90
2023-05-19T06:31:33.658Z,11.01
2023-05-19T06:34:46.330Z,11.11
2023-05-19T06:37:55.737Z,11.29
2023-05-19T06:41:00.042Z,11.40
2023-05-19T06:44:01.687Z,11.49
2023-05-19T06:47:09.761Z,11.61
2023-05-19T06:50:11.332Z,11.68
2023-05-19T06:53:19.934Z,11.56
2023-05-19T06:56:25.167Z,11.67
2023-05-19T06:59:26.968Z,11.78
2023-05-19T07:02:29.412Z,11.80
2023-05-19T07:05:31.070Z,12.04
2023-05-19T07:08:37.130Z,12.30
2023-05-19T07:11:40.020Z,12.55
2023-05-19T07:14:43.119Z,12.86
2023-05-19T07:17:49.116Z,13.36
2023-05-19T07:20:52.798Z,13.50
2023-05-19T07:23:58.730Z,13.54
2023-05-19T07:27:04.259Z,13.85
2023-05-19T07:30:06.396Z,14.17
2023-05-19T07:33:08.219Z,14.33
2023-05-19T07:36:17.099Z,14.32
2023-05-19T07:39:19.029Z,14.37
2023-05-19T07:42:20.666Z,14.28
2023-05-19T07:45:25.464Z,14.22
2023-05-19T07:48:29.114Z,14.86
2023-05-19T07:51:55.888Z,15.52
2023-05-19T07:54:59.105Z,15.46
2023-05-19T07:58:00.708Z,15.79
2023-05-19T08:01:02.211Z,15.76
2023-05-19T08:04:03.848Z,15.87
2023-05-19T08:07:07.209Z,15.71
2023-05-19T08:10:08.961Z,15.82
2023-05-19T08:13:10.518Z,16.20
2023-05-19T08:16:12.105Z,15.73
2023-05-19T08:19:13.677Z,15.83
2023-05-19T08:22:18.484Z,15.42
2023-05-19T08:25:20.132Z,15.41
2023-05-19T08:28:21.634Z,16.06
2023-05-19T08:31:23.291Z,16.34
2023-05-19T08:34:24.977Z,16.38
2023-05-19T08:37:28.822Z,15.79
2023-05-19T08:47:15.205Z,16.18
2023-05-19T08:50:46.548Z,16.10
2023-05-19T08:53:51.705Z,16.08
2023-05-19T08:56:57.775Z,16.20
2023-05-19T09:00:12.817Z,16.05
2023-05-19T09:03:23.184Z,15.86
2023-05-19T09:06:32.320Z,16.11
2023-05-19T09:09:36.383Z,15.70
2023-05-19T09:12:38.015Z,15.72
2023-05-19T09:15:41.291Z,15.77
2023-05-19T09:18:58.921Z,15.81
2023-05-19T09:22:08.774Z,15.72
2023-05-19T09:25:30.706Z,16.05
2023-05-19T09:28:34.490Z,16.12
2023-05-19T09:31:39.677Z,16.20
2023-05-19T09:34:49.459Z,16.31
2023-05-19T09:37:53.154Z,16.28
2023-05-19T09:40:59.373Z,16.56
2023-05-19T09:44:02.242Z,16.68
2023-05-19T09:47:12.260Z,16.48
2023-05-19T09:50:17.353Z,16.24
2023-05-19T09:53:22.392Z,16.30
2023-05-19T09:56:25.534Z,16.24
2023-05-19T09:59:32.487Z,16.38
2023-05-19T10:02:35.929Z,16.09
2023-05-19T10:05:38.460Z,15.98
2023-05-19T10:08:42.323Z,15.94
2023-05-19T10:11:44.417Z,16.27
2023-05-19T10:14:48.736Z,16.14
2023-05-19T10:17:53.592Z,16.10
2023-05-19T10:20:57.714Z,15.84
2023-05-19T10:23:59.314Z,16.23
2023-05-19T10:27:05.826Z,16.11
2023-05-19T10:30:20.651Z,16.27
2023-05-19T10:33:28.860Z,16.33
2023-05-19T10:37:01.691Z,16.33
2023-05-19T10:40:16.942Z,16.35
2023-05-19T10:43:39.320Z,16.66
2023-05-19T10:46:47.168Z,16.71
2023-05-19T10:49:48.830Z,16.56
2023-05-19T10:52:56.615Z,16.73
2023-05-19T10:56:02.570Z,16.87
2023-05-19T10:59:31.829Z,17.07
2023-05-19T11:02:38.966Z,16.94
2023-05-19T11:05:41.141Z,16.76
2023-05-19T11:08:44.906Z,16.64
2023-05-19T11:11:55.191Z,16.98
2023-05-19T11:18:16.147Z,16.88
2023-05-19T11:21:52.416Z,16.79
2023-05-19T11:24:55.469Z,16.71
2023-05-19T11:31:13.292Z,16.78
2023-05-19T11:34:25.687Z,16.88
2023-05-19T11:37:31.205Z,16.82
2023-05-19T11:40:43.228Z,16.81
2023-05-19T11:43:47.801Z,16.80
2023-05-19T11:46:49.639Z,16.85
2023-05-19T11:50:00.559Z,17.05
2023-05-19T11:53:05.840Z,17.02
2023-05-19T11:56:11.717Z,16.78
2023-05-19T11:59:13.945Z,16.55
2023-05-19T12:02:21.653Z,16.83
2023-05-19T12:05:30.054Z,16.76
2023-05-19T12:08:31.833Z,16.91
2023-05-19T12:11:37.906Z,16.84
2023-05-19T12:14:40.301Z,16.78
2023-05-19T12:17:46.561Z,16.67
2023-05-19T12:20:48.486Z,16.41
2023-05-19T12:27:12.285Z,16.53
2023-05-19T12:30:17.298Z,16.56
2023-05-19T12:33:25.653Z,16.59
2023-05-19T12:36:28.567Z,16.57
2023-05-19T12:39:32.425Z,16.73
2023-05-19T12:42:35.344Z,16.75
2023-05-19T12:45:38.690Z,16.89
2023-05-19T12:48:50.007Z,16.90
2023-05-19T12:52:12.814Z,17.13
2023-05-19T12:55:16.368Z,17.02
2023-05-19T12:58:19.598Z,17.23
2023-05-19T13:01:22.715Z,16.95
2023-05-19T13:04:26.086Z,17.30
2023-05-19T13:07:27.960Z,17.33
2023-05-19T13:10:31.319Z,17.52
2023-05-19T13:13:36.382Z,17.44
2023-05-19T13:16:40.983Z,17.44
2023-05-19T13:19:42.649Z,17.22
2023-05-19T13:22:46.587Z,17.24
2023-05-19T13:25:50.863Z,17.31
2023-05-19T13:32:12.972Z,17.31
2023-05-19T13:35:18.199Z,17.54
2023-05-19T13:38:24.928Z,17.64
2023-05-19T13:41:29.512Z,17.63
2023-05-19T13:44:40.169Z,17.44
2023-05-19T13:47:45.779Z,17.37
2023-05-19T13:50:55.561Z,17.39
2023-05-19T13:53:59.559Z,17.24
2023-05-19T13:57:12.450Z,17.13
2023-05-19T14:00:14.536Z,16.94
2023-05-19T14:03:19.673Z,16.98
2023-05-19T14:06:21.717Z,17.02
2023-05-19T14:09:23.284Z,16.55
2023-05-19T14:12:38.019Z,16.74
2023-05-19T14:15:45.123Z,16.75
2023-05-19T14:18:48.833Z,16.62
2023-05-19T14:21:53.083Z,16.83
2023-05-19T14:24:57.055Z,16.84
2023-05-19T14:27:58.630Z,16.81
2023-05-19T14:31:00.310Z,16.97
2023-05-19T14:34:05.206Z,17.12
2023-05-19T14:37:07.093Z,16.86
2023-05-19T14:40:09.008Z,16.82
2023-05-19T14:43:13.529Z,16.95
2023-05-19T14:46:15.243Z,16.79
2023-05-19T14:49:16.894Z,16.89
2023-05-19T14:52:18.672Z,16.63
2023-05-19T14:55:22.421Z,16.65
2023-05-19T14:58:29.203Z,16.54
2023-05-19T15:01:32.550Z,16.31
2023-05-19T15:04:36.545Z,16.34
2023-05-19T15:07:38.115Z,16.32
2023-05-19T15:10:41.771Z,16.55
2023-05-19T15:13:43.349Z,16.77
2023-05-19T15:16:52.301Z,16.63
2023-05-19T15:19:54.847Z,16.53
2023-05-19T15:22:59.424Z,16.69
2023-05-19T15:26:01.927Z,16.72
2023-05-19T15:29:03.778Z,16.77
2023-05-19T15:32:09.817Z,16.82
2023-05-19T15:35:17.407Z,16.88
2023-05-19T15:38:22.869Z,16.56
2023-05-19T15:41:26.493Z,16.63
2023-05-19T15:44:29.117Z,16.62
2023-05-19T15:47:33.906Z,16.73
2023-05-19T15:50:38.272Z,16.85
2023-05-19T15:57:02.886Z,16.84
2023-05-19T16:00:11.218Z,16.74
2023-05-19T16:03:12.859Z,16.67
2023-05-19T16:06:29.870Z,16.47
2023-05-19T16:09:31.481Z,16.30
2023-05-19T16:12:33.686Z,16.17
2023-05-19T16:18:52.454Z,15.77
2023-05-19T16:21:54.161Z,15.92
2023-05-19T16:24:55.824Z,15.83
2023-05-19T16:27:57.728Z,15.79
2023-05-19T16:31:00.190Z,15.68
2023-05-19T16:34:01.914Z,15.49
2023-05-19T16:37:05.609Z,15.48
2023-05-19T16:40:10.058Z,15.55
2023-05-19T16:43:29.927Z,15.45
2023-05-19T16:46:34.354Z,15.35
2023-05-19T16:49:40.916Z,15.41
2023-05-19T16:52:42.547Z,15.41
2023-05-19T16:55:44.942Z,15.38
2023-05-19T16:58:46.557Z,15.28
2023-05-19T17:01:48.200Z,15.36
2023-05-19T17:04:55.917Z,15.18
2023-05-19T17:07:57.584Z,15.27
2023-05-19T17:11:02.333Z,15.39
2023-05-19T17:14:09.797Z,15.55
2023-05-19T17:17:18.961Z,15.38
2023-05-19T17:20:20.725Z,15.50
2023-05-19T17:23:35.845Z,15.39
2023-05-19T17:26:37.407Z,15.44
2023-05-19T17:29:38.989Z,15.41
2023-05-19T17:32:43.816Z,15.39
2023-05-19T17:35:46.022Z,15.33
2023-05-19T17:38:50.803Z,15.16
2023-05-19T17:41:54.079Z,15.33
2023-05-19T17:48:15.086Z,15.17
2023-05-19T17:51:19.286Z,15.02
2023-05-19T17:54:29.378Z,15.08
2023-05-19T17:57:41.299Z,14.91
2023-05-19T18:00:43.086Z,14.95
2023-05-19T18:03:49.526Z,14.82
2023-05-19T18:06:52.736Z,14.80
2023-05-19T18:09:56.274Z,14.84
2023-05-19T18:12:57.871Z,14.72
2023-05-19T18:16:02.193Z,14.70
2023-05-19T18:19:04.153Z,14.70
2023-05-19T18:22:06.216Z,14.76
2023-05-19T18:25:08.619Z,14.73
2023-05-19T18:31:34.999Z,14.40
2023-05-19T18:34:38.903Z,14.21
2023-05-19T18:37:40.598Z,14.14
2023-05-19T18:40:45.495Z,14.07
2023-05-19T18:43:59.270Z,13.76
2023-05-19T18:47:07.186Z,13.79
2023-05-19T18:50:14.896Z,13.85
2023-05-19T18:53:18.620Z,13.69
2023-05-19T18:56:28.180Z,13.88
2023-05-19T18:59:31.837Z,13.80
2023-05-19T19:02:36.686Z,13.65
2023-05-19T19:05:38.333Z,13.63
2023-05-19T19:08:39.975Z,13.32
2023-05-19T19:11:43.165Z,13.50
2023-05-19T19:18:08.636Z,13.65
2023-05-19T19:21:13.286Z,13.44
2023-05-19T19:30:47.569Z,13.34
2023-05-19T19:33:49.191Z,13.23
2023-05-19T19:36:50.772Z,13.29
2023-05-19T19:39:52.373Z,13.15
2023-05-19T19:42:54.188Z,13.08
2023-05-19T19:46:06.994Z,13.20
2023-05-19T19:49:08.650Z,12.98
2023-05-19T19:52:20.683Z,12.97
2023-05-19T19:55:26.863Z,12.99
2023-05-19T19:58:36.078Z,12.96
2023-05-19T20:01:38.238Z,12.89
2023-05-19T20:04:50.138Z,12.82
2023-05-19T20:07:58.901Z,12.74
2023-05-19T20:11:03.583Z,12.85
2023-05-19T20:14:05.189Z,12.87
2023-05-19T20:17:06.777Z,12.86
2023-05-19T20:20:10.734Z,12.84
2023-05-19T20:23:16.183Z,12.72
2023-05-19T20:26:20.436Z,12.61
2023-05-19T20:29:28.399Z,12.54
2023-05-19T20:32:32.622Z,12.52
2023-05-19T20:35:34.490Z,12.43
2023-05-19T20:38:36.309Z,12.58
2023-05-19T20:41:40.973Z,12.49
2023-05-19T20:44:42.811Z,12.41
2023-05-19T20:47:50.616Z,12.26
2023-05-19T20:50:53.685Z,12.47
2023-05-19T20:53:58.047Z,12.50
2023-05-19T20:56:59.654Z,12.58
2023-05-19T21:00:04.722Z,12.42
2023-05-19T21:03:08.288Z,12.43
2023-05-19T21:06:12.857Z,12.52
2023-05-19T21:09:18.315Z,12.63
2023-05-19T21:12:33.825Z,12.64
2023-05-19T21:15:36.325Z,12.77
2023-05-19T21:18:40.076Z,12.72
2023-05-19T21:21:42.906Z,12.66
2023-05-19T21:24:46.909Z,12.69
2023-05-19T21:27:48.563Z,12.58
2023-05-19T21:30:53.211Z,12.67
2023-05-19T21:33:54.854Z,12.50
2023-05-19T21:36:58.755Z,12.58
2023-05-19T21:40:09.781Z,12.54
2023-05-19T21:43:37.400Z,12.52
2023-05-19T21:46:41.161Z,12.46
2023-05-19T21:49:45.092Z,12.32
2023-05-19T21:52:49.648Z,12.39
2023-05-19T21:55:51.593Z,12.35
2023-05-19T21:58:53.212Z,12.28
2023-05-19T22:01:57.162Z,12.36
2023-05-19T22:04:58.782Z,12.46
2023-05-19T22:08:00.850Z,12.43
2023-05-19T22:11:04.645Z,12.31
2023-05-19T22:14:06.956Z,12.36
2023-05-19T22:17:08.517Z,12.24
2023-05-19T22:20:10.515Z,12.41
2023-05-19T22:23:21.607Z,12.26
2023-05-19T22:26:25.274Z,12.27
2023-05-19T22:29:29.874Z,12.18
2023-05-19T22:39:05.699Z,12.40
2023-05-19T22:42:14.429Z,12.19
2023-05-19T22:45:16.526Z,12.32
2023-05-19T22:48:21.184Z,12.36
2023-05-19T22:54:48.489Z,12.34
2023-05-19T22:57:51.482Z,12.40
2023-05-19T23:00:53.060Z,12.54
2023-05-19T23:03:54.750Z,12.39
2023-05-19T23:06:56.420Z,12.51
2023-05-19T23:09:58.162Z,12.62
2023-05-19T23:13:01.933Z,12.47
2023-05-19T23:16:04.710Z,12.37
2023-05-19T23:19:12.270Z,12.40
2023-05-19T23:22:13.863Z,12.41
2023-05-19T23:25:15.534Z,12.46
2023-05-19T23:28:27.353Z,12.45
2023-05-19T23:34:44.360Z,12.42
2023-05-19T23:37:48.236Z,12.45
2023-05-19T23:40:51.997Z,12.49
2023-05-19T23:43:54.569Z,12.45
2023-05-19T23:46:59.420Z,12.64
2023-05-19T23:50:01.530Z,12.50
2023-05-19T23:53:08.159Z,12.42
2023-05-19T23:56:10.604Z,12.63
2023-05-19T23:59:12.195Z,12.59
